Terminal Aerodrome Forecast
Issued by NWS

Home | Current Version | Previous Version | Text Only | Print | Product List | Glossary On
Versions: 1 2 3 4 5 6 7 8 9 10 11 12 13 14 15 16 17
000
FTUS41 KBGM 041131
TAFITH
TAF
KITH 041131Z 0412/0512 VRB03KT P6SM -SHRA SCT015 OVC035
      TEMPO 0412/0416 3SM -SHRA BR OVC015
     FM041700 18008KT P6SM BKN040 PROB30 0421/0423 4SM -TSRA BR
      OVC025CB
     FM050000 VRB03KT P6SM FEW045
     FM050800 00000KT 3SM BR SCT005=

USA.gov is the U.S. government's official web portal to all federal, state and local government web resources and services.